createdAt,value
2023-07-14T00:01:59.364Z,101724.06
2023-07-14T00:04:33.180Z,101714.25
2023-07-14T00:07:02.052Z,101710.44
2023-07-14T00:09:32.105Z,101712.16
2023-07-14T00:12:02.346Z,101715.63
2023-07-14T00:14:31.264Z,101708.22
2023-07-14T00:16:59.780Z,101718.88
2023-07-14T00:19:28.293Z,101703.72
2023-07-14T00:21:56.828Z,101715.09
2023-07-14T00:24:24.993Z,101695.66
2023-07-14T00:26:57.911Z,101696.16
2023-07-14T00:29:38.923Z,101693.28
2023-07-14T00:32:14.867Z,101692.06
2023-07-14T00:34:43.692Z,101699.97
2023-07-14T00:37:12.358Z,101693.09
2023-07-14T00:39:40.747Z,101689.81
2023-07-14T00:42:14.571Z,101701.16
2023-07-14T00:44:44.922Z,101699.44
2023-07-14T00:47:23.965Z,101693.44
2023-07-14T00:49:54.478Z,101703.56
2023-07-14T00:52:29.876Z,101682.41
2023-07-14T00:54:57.949Z,101694.63
2023-07-14T00:57:29.935Z,101692.72
2023-07-14T01:00:06.537Z,101688.25
2023-07-14T01:02:34.780Z,101691.19
2023-07-14T01:05:06.586Z,101685.00
2023-07-14T01:07:37.729Z,101672.13
2023-07-14T01:10:09.706Z,101662.69
2023-07-14T01:12:42.204Z,101678.31
2023-07-14T01:15:12.328Z,101680.03
2023-07-14T01:17:40.708Z,101683.09
2023-07-14T01:20:11.076Z,101678.63
2023-07-14T01:22:48.179Z,101642.88
2023-07-14T01:25:25.786Z,101678.28
2023-07-14T01:27:55.510Z,101680.34
2023-07-14T01:30:24.593Z,101670.19
2023-07-14T01:32:53.482Z,101670.03
2023-07-14T01:35:28.806Z,101670.38
2023-07-14T01:37:57.178Z,101666.22
2023-07-14T01:40:25.889Z,101656.31
2023-07-14T01:43:01.193Z,101659.38
2023-07-14T01:45:33.041Z,101660.56
2023-07-14T01:48:04.137Z,101661.75
2023-07-14T01:50:34.796Z,101659.19
2023-07-14T01:53:07.760Z,101664.16
2023-07-14T01:55:37.151Z,101650.41
2023-07-14T01:58:14.061Z,101657.97
2023-07-14T02:00:44.763Z,101641.81
2023-07-14T02:03:15.109Z,101657.09
2023-07-14T02:05:43.401Z,101651.06
2023-07-14T02:08:18.152Z,101656.75
2023-07-14T02:10:46.125Z,101638.66
2023-07-14T02:13:15.887Z,101656.19
2023-07-14T02:15:46.134Z,101658.41
2023-07-14T02:18:17.384Z,101652.03
2023-07-14T02:20:48.926Z,101638.97
2023-07-14T02:23:21.826Z,101645.16
2023-07-14T02:25:59.871Z,101645.34
2023-07-14T02:28:29.451Z,101647.19
2023-07-14T02:31:06.571Z,101636.72
2023-07-14T02:33:39.181Z,101639.09
2023-07-14T02:36:13.175Z,101641.00
2023-07-14T02:38:41.907Z,101643.03
2023-07-14T02:41:20.271Z,101637.72
2023-07-14T02:43:55.285Z,101647.16
2023-07-14T02:46:29.830Z,101636.63
2023-07-14T02:48:57.743Z,101600.53
2023-07-14T02:51:25.654Z,101645.56
2023-07-14T02:53:53.426Z,101641.25
2023-07-14T02:56:22.096Z,101643.00
2023-07-14T02:58:51.842Z,101640.56
2023-07-14T03:01:21.709Z,101645.50
2023-07-14T03:03:50.167Z,101650.81
2023-07-14T03:06:20.880Z,101642.94
2023-07-14T03:08:49.101Z,101642.41
2023-07-14T03:11:17.082Z,101642.41
2023-07-14T03:13:45.432Z,101639.97
2023-07-14T03:16:14.937Z,101639.84
2023-07-14T03:18:42.886Z,101642.72
2023-07-14T03:21:12.857Z,101645.31
2023-07-14T03:23:40.932Z,101629.19
2023-07-14T03:26:11.354Z,101627.44
2023-07-14T03:28:39.442Z,101631.25
2023-07-14T03:31:07.869Z,101615.28
2023-07-14T03:33:37.621Z,101624.88
2023-07-14T03:36:07.583Z,101623.16
2023-07-14T03:38:43.936Z,101622.31
2023-07-14T03:41:13.337Z,101623.63
2023-07-14T03:43:41.598Z,101624.69
2023-07-14T03:46:09.835Z,101629.13
2023-07-14T03:48:39.377Z,101628.97
2023-07-14T03:51:08.330Z,101622.63
2023-07-14T03:53:37.079Z,101619.19
2023-07-14T03:56:05.246Z,101619.19
2023-07-14T03:58:33.116Z,101617.13
2023-07-14T04:01:02.054Z,101611.66
2023-07-14T04:03:30.322Z,101614.41
2023-07-14T04:05:59.610Z,101607.19
2023-07-14T04:08:27.456Z,101606.81
2023-07-14T04:10:55.916Z,101609.44
2023-07-14T04:13:23.814Z,101618.16
2023-07-14T04:15:51.772Z,101613.84
2023-07-14T04:18:19.799Z,101595.66
2023-07-14T04:20:47.925Z,101610.94
2023-07-14T04:23:18.399Z,101614.38
2023-07-14T04:25:46.916Z,101608.19
2023-07-14T04:28:14.899Z,101600.81
2023-07-14T04:30:42.903Z,101599.09
2023-07-14T04:33:10.828Z,101605.63
2023-07-14T04:35:38.735Z,101598.56
2023-07-14T04:38:07.910Z,101610.03
2023-07-14T04:40:41.638Z,101605.44
2023-07-14T04:43:09.369Z,101607.47
2023-07-14T04:45:39.812Z,101604.25
2023-07-14T04:48:09.724Z,101603.41
2023-07-14T04:50:38.463Z,101592.91
2023-07-14T04:53:07.567Z,101604.78
2023-07-14T04:55:38.785Z,101595.53
2023-07-14T04:58:07.262Z,101599.31
2023-07-14T05:00:36.858Z,101590.38
2023-07-14T05:03:05.478Z,101605.50
2023-07-14T05:05:34.866Z,101596.06
2023-07-14T05:08:02.884Z,101594.19
2023-07-14T05:10:32.979Z,101583.03
2023-07-14T05:13:03.016Z,101586.19
2023-07-14T05:15:31.311Z,101588.25
2023-07-14T05:17:59.359Z,101572.81
2023-07-14T05:20:27.661Z,101584.19
2023-07-14T05:22:56.437Z,101583.00
2023-07-14T05:25:24.982Z,101583.03
2023-07-14T05:27:53.413Z,101588.69
2023-07-14T05:30:23.703Z,101585.47
2023-07-14T05:32:52.158Z,101557.47
2023-07-14T05:35:20.537Z,101586.53
2023-07-14T05:37:48.781Z,101579.34
2023-07-14T05:40:19.178Z,101576.81
2023-07-14T05:42:48.397Z,101581.63
2023-07-14T05:45:17.050Z,101570.28
2023-07-14T05:47:48.539Z,101575.28
2023-07-14T05:50:18.253Z,101572.88
2023-07-14T05:52:47.741Z,101579.22
2023-07-14T05:55:15.949Z,101580.09
2023-07-14T05:57:45.170Z,101576.81
2023-07-14T06:00:17.696Z,101568.41
2023-07-14T06:02:51.337Z,101562.38
2023-07-14T06:05:20.766Z,101575.94
2023-07-14T06:07:48.656Z,101575.09
2023-07-14T06:10:16.605Z,101574.53
2023-07-14T06:12:44.454Z,101574.34
2023-07-14T06:15:12.717Z,101564.91
2023-07-14T06:17:41.077Z,101564.72
2023-07-14T06:20:13.315Z,101570.88
2023-07-14T06:22:41.779Z,101572.53
2023-07-14T06:25:10.132Z,101568.03
2023-07-14T06:27:38.001Z,101563.84
2023-07-14T06:30:06.910Z,101569.81
2023-07-14T06:32:34.765Z,101561.66
2023-07-14T06:35:02.628Z,101559.50
2023-07-14T06:37:31.764Z,101559.19
2023-07-14T06:39:59.868Z,101554.28
2023-07-14T06:42:27.804Z,101559.63
2023-07-14T06:44:55.607Z,101560.88
2023-07-14T06:47:23.534Z,101566.22
2023-07-14T06:49:51.534Z,101560.25
2023-07-14T06:52:19.336Z,101552.94
2023-07-14T06:54:48.611Z,101547.94
2023-07-14T06:57:16.884Z,101542.72
2023-07-14T06:59:44.845Z,101546.44
2023-07-14T07:02:13.286Z,101546.56
2023-07-14T07:04:41.164Z,101547.06
2023-07-14T07:07:09.147Z,101541.28
2023-07-14T07:09:36.983Z,101552.41
2023-07-14T07:12:09.644Z,101550.91
2023-07-14T07:14:37.769Z,101545.13
2023-07-14T07:17:06.281Z,101542.66
2023-07-14T07:19:34.605Z,101541.91
2023-07-14T07:22:02.378Z,101538.56
2023-07-14T07:24:30.332Z,101542.84
2023-07-14T07:26:58.126Z,101527.53
2023-07-14T07:29:27.611Z,101532.09
2023-07-14T07:31:55.466Z,101540.28
2023-07-14T07:34:23.287Z,101523.16
2023-07-14T07:36:51.358Z,101507.75
2023-07-14T07:39:19.207Z,101524.88
2023-07-14T07:41:47.116Z,101506.25
2023-07-14T07:44:14.884Z,101522.28
2023-07-14T07:46:44.781Z,101518.28
2023-07-14T07:49:12.752Z,101522.19
2023-07-14T07:51:40.581Z,101521.59
2023-07-14T07:54:08.360Z,101521.88
2023-07-14T07:56:36.512Z,101514.72
2023-07-14T07:59:04.464Z,101501.28
2023-07-14T08:01:32.353Z,101516.88
2023-07-14T08:04:01.777Z,101513.78
2023-07-14T08:06:29.884Z,101513.78
2023-07-14T08:08:57.680Z,101515.97
2023-07-14T08:11:25.525Z,101508.72
2023-07-14T08:13:53.327Z,101503.19
2023-07-14T08:16:21.188Z,101510.47
2023-07-14T08:18:49.045Z,101501.81
2023-07-14T08:21:18.260Z,101506.16
2023-07-14T08:23:46.145Z,101504.75
2023-07-14T08:26:15.380Z,101504.34
2023-07-14T08:28:43.462Z,101506.09
2023-07-14T08:31:15.280Z,101510.44
2023-07-14T08:33:45.157Z,101507.50
2023-07-14T08:36:15.306Z,101513.13
2023-07-14T08:38:44.661Z,101509.31
2023-07-14T08:41:23.109Z,101514.50
2023-07-14T08:44:09.473Z,101514.97
2023-07-14T08:46:42.951Z,101513.97
2023-07-14T08:49:22.172Z,101512.06
2023-07-14T08:51:54.813Z,101511.25
2023-07-14T08:54:28.480Z,101512.78
2023-07-14T08:56:56.365Z,101515.19
2023-07-14T08:59:34.739Z,101507.16
2023-07-14T09:02:11.913Z,101490.41
2023-07-14T09:04:43.863Z,101487.03
2023-07-14T09:07:18.568Z,101485.56
2023-07-14T09:09:47.994Z,101480.47
2023-07-14T09:12:24.781Z,101474.50
2023-07-14T09:15:03.178Z,101468.34
2023-07-14T09:17:50.728Z,101470.50
2023-07-14T09:20:41.381Z,101481.16
2023-07-14T09:23:18.679Z,101475.38
2023-07-14T09:25:56.152Z,101468.13
2023-07-14T09:28:34.378Z,101476.69
2023-07-14T09:31:06.621Z,101466.69
2023-07-14T09:33:50.019Z,101476.72
2023-07-14T09:36:19.256Z,101477.97
2023-07-14T09:38:50.187Z,101482.84
2023-07-14T09:41:20.438Z,101479.00
2023-07-14T09:43:48.306Z,101476.44
2023-07-14T09:46:19.211Z,101473.69
2023-07-14T09:48:51.542Z,101477.13
2023-07-14T09:51:26.116Z,101466.88
2023-07-14T09:54:02.639Z,101457.09
2023-07-14T09:56:37.426Z,101461.75
2023-07-14T09:59:08.580Z,101456.66
2023-07-14T10:01:36.448Z,101455.59
2023-07-14T10:04:18.080Z,101449.84
2023-07-14T10:06:48.865Z,101447.06
2023-07-14T10:09:17.472Z,101435.13
2023-07-14T10:11:50.640Z,101441.50
2023-07-14T10:14:20.228Z,101436.19
2023-07-14T10:16:49.538Z,101436.16
2023-07-14T10:19:19.884Z,101432.78
2023-07-14T10:21:55.969Z,101430.19
2023-07-14T10:24:26.602Z,101428.50
2023-07-14T10:26:59.333Z,101438.94
2023-07-14T10:29:29.880Z,101439.34
2023-07-14T10:32:06.805Z,101437.44
2023-07-14T10:34:54.307Z,101433.59
2023-07-14T10:37:26.006Z,101431.25
2023-07-14T10:40:00.350Z,101422.50
2023-07-14T10:42:37.094Z,101414.00
2023-07-14T10:45:05.820Z,101401.00
2023-07-14T10:47:45.210Z,101385.47
2023-07-14T10:50:19.338Z,101365.00
2023-07-14T10:52:52.486Z,101379.91
2023-07-14T10:55:25.819Z,101381.63
2023-07-14T10:57:59.267Z,101386.72
2023-07-14T11:00:31.742Z,101387.16
2023-07-14T11:03:15.642Z,101390.56
2023-07-14T11:05:46.791Z,101394.16
2023-07-14T11:08:14.895Z,101385.00
2023-07-14T11:10:53.338Z,101379.47
2023-07-14T11:13:30.278Z,101367.53
2023-07-14T11:16:08.393Z,101359.44
2023-07-14T11:18:47.046Z,101356.88
2023-07-14T11:21:37.774Z,101342.81
2023-07-14T11:24:18.373Z,101350.50
2023-07-14T11:27:07.011Z,101358.59
2023-07-14T11:29:43.976Z,101358.38
2023-07-14T11:32:21.383Z,101351.53
2023-07-14T11:34:58.462Z,101342.56
2023-07-14T11:37:40.693Z,101335.72
2023-07-14T11:40:21.146Z,101321.16
2023-07-14T11:42:54.036Z,101323.47
2023-07-14T11:45:26.584Z,101326.38
2023-07-14T11:47:57.400Z,101331.03
2023-07-14T11:50:39.422Z,101318.16
2023-07-14T11:53:21.809Z,101314.88
2023-07-14T11:55:52.199Z,101321.75
2023-07-14T11:58:27.876Z,101315.25
2023-07-14T12:01:00.424Z,101310.09
2023-07-14T12:03:36.778Z,101320.63
2023-07-14T12:06:45.190Z,101316.81
2023-07-14T12:09:17.729Z,101313.28
2023-07-14T12:11:57.788Z,101326.94
2023-07-14T12:14:47.531Z,101316.44
2023-07-14T12:17:50.959Z,101307.28
2023-07-14T12:20:29.212Z,101292.84
2023-07-14T12:23:25.409Z,101291.53
2023-07-14T12:25:58.814Z,101285.69
2023-07-14T12:28:28.281Z,101279.75
2023-07-14T12:30:56.414Z,101260.84
2023-07-14T12:33:26.253Z,101253.00
2023-07-14T12:35:54.593Z,101251.03
2023-07-14T12:38:24.113Z,101254.88
2023-07-14T12:40:55.295Z,101243.69
2023-07-14T12:43:29.670Z,101241.84
2023-07-14T12:45:58.835Z,101243.44
2023-07-14T12:48:30.420Z,101236.81
2023-07-14T12:50:59.020Z,101237.28
2023-07-14T12:53:30.565Z,101224.97
2023-07-14T12:56:06.013Z,101221.94
2023-07-14T12:58:33.842Z,101227.38
2023-07-14T13:01:01.643Z,101217.81
2023-07-14T13:03:37.248Z,101213.34
2023-07-14T13:06:05.163Z,101216.72
2023-07-14T13:08:33.849Z,101209.00
2023-07-14T13:11:06.991Z,101212.28
2023-07-14T13:13:40.434Z,101203.00
2023-07-14T13:16:08.517Z,101200.38
2023-07-14T13:18:37.831Z,101195.56
2023-07-14T13:21:26.936Z,101190.13
2023-07-14T13:23:56.916Z,101184.97
2023-07-14T13:26:25.033Z,101175.53
2023-07-14T13:28:58.242Z,101175.78
2023-07-14T13:31:29.423Z,101174.09
2023-07-14T13:33:59.469Z,101168.44
2023-07-14T13:36:29.569Z,101170.72
2023-07-14T13:38:57.862Z,101172.66
2023-07-14T13:41:27.663Z,101168.56
2023-07-14T13:44:39.553Z,101166.22
2023-07-14T13:47:19.467Z,101157.13
2023-07-14T13:49:51.993Z,101149.41
2023-07-14T13:52:21.834Z,101147.13
2023-07-14T13:54:55.062Z,101141.22
2023-07-14T13:57:24.689Z,101133.94
2023-07-14T13:59:52.945Z,101121.97
2023-07-14T14:02:33.330Z,101125.34
2023-07-14T14:05:06.880Z,101116.78
2023-07-14T14:07:35.043Z,101111.81
2023-07-14T14:10:02.935Z,101100.31
2023-07-14T14:12:30.807Z,101103.59
2023-07-14T14:14:58.673Z,101090.13
2023-07-14T14:17:35.152Z,101086.50
2023-07-14T14:20:07.117Z,101077.09
2023-07-14T14:22:35.078Z,101076.94
2023-07-14T14:25:02.988Z,101068.25
2023-07-14T14:27:30.789Z,101056.28
2023-07-14T14:29:58.590Z,101049.50
2023-07-14T14:32:27.101Z,101041.13
2023-07-14T14:34:59.906Z,101032.63
2023-07-14T14:37:29.188Z,101028.50
2023-07-14T14:39:57.189Z,101030.94
2023-07-14T14:42:24.999Z,101020.06
2023-07-14T14:44:52.877Z,101015.94
2023-07-14T14:47:21.103Z,101021.28
2023-07-14T14:49:48.937Z,101016.19
2023-07-14T14:52:16.913Z,101004.66
2023-07-14T14:54:46.369Z,101014.38
2023-07-14T14:57:17.882Z,101004.56
2023-07-14T14:59:46.862Z,101005.09
2023-07-14T15:02:17.707Z,100988.53
2023-07-14T15:04:45.758Z,100983.44
2023-07-14T15:07:15.169Z,100977.03
2023-07-14T15:09:43.817Z,100967.13
2023-07-14T15:12:17.569Z,100976.22
2023-07-14T15:15:39.084Z,100968.59
2023-07-14T15:21:58.424Z,100956.41
2023-07-14T15:24:26.794Z,100942.25
2023-07-14T15:26:55.223Z,100944.66
2023-07-14T15:29:24.948Z,100935.72
2023-07-14T15:31:55.693Z,100928.69
2023-07-14T15:34:23.620Z,100924.22
2023-07-14T15:36:51.606Z,100926.16
2023-07-14T15:39:27.355Z,100914.16
2023-07-14T15:41:56.544Z,100912.16
2023-07-14T15:44:43.993Z,100904.28
2023-07-14T15:47:17.086Z,100898.09
2023-07-14T15:49:52.681Z,100892.69
2023-07-14T15:52:22.767Z,100885.06
2023-07-14T15:54:51.072Z,100886.88
2023-07-14T15:57:19.054Z,100879.88
2023-07-14T15:59:48.304Z,100873.22
2023-07-14T16:02:17.404Z,100872.13
2023-07-14T16:04:45.312Z,100871.88
2023-07-14T16:07:18.585Z,100869.72
2023-07-14T16:09:47.066Z,100858.72
2023-07-14T16:12:19.873Z,100854.84
2023-07-14T16:14:49.139Z,100854.72
2023-07-14T16:17:17.031Z,100850.03
2023-07-14T16:19:47.103Z,100853.28
2023-07-14T16:22:19.584Z,100837.31
2023-07-14T16:24:48.641Z,100835.63
2023-07-14T16:27:24.828Z,100838.66
2023-07-14T16:29:54.768Z,100837.56
2023-07-14T16:32:23.292Z,100819.53
2023-07-14T16:34:51.933Z,100820.72
2023-07-14T16:37:20.965Z,100808.78
2023-07-14T16:39:49.564Z,100804.03
2023-07-14T16:42:19.458Z,100802.13
2023-07-14T16:44:47.611Z,100796.22
2023-07-14T16:47:16.869Z,100793.78
2023-07-14T16:49:44.890Z,100799.09
2023-07-14T16:52:24.933Z,100787.03
2023-07-14T16:54:53.559Z,100788.34
2023-07-14T16:57:32.423Z,100779.91
2023-07-14T17:00:00.321Z,100770.97
2023-07-14T17:02:29.599Z,100772.06
2023-07-14T17:04:58.888Z,100771.91
2023-07-14T17:07:26.778Z,100768.44
2023-07-14T17:09:56.969Z,100765.88
2023-07-14T17:12:26.684Z,100758.63
2023-07-14T17:14:54.570Z,100760.31
2023-07-14T17:17:22.440Z,100756.34
2023-07-14T17:19:51.755Z,100751.25
2023-07-14T17:22:19.730Z,100752.38
2023-07-14T17:24:51.600Z,100752.00
2023-07-14T17:27:20.063Z,100747.78
2023-07-14T17:29:51.648Z,100744.03
2023-07-14T17:32:20.434Z,100746.81
2023-07-14T17:34:48.309Z,100755.78
2023-07-14T17:37:21.990Z,100746.81
2023-07-14T17:39:49.810Z,100745.84
2023-07-14T17:42:19.686Z,100738.00
2023-07-14T17:44:48.403Z,100724.84
2023-07-14T17:47:16.295Z,100719.19
2023-07-14T17:49:44.605Z,100719.53
2023-07-14T17:52:17.981Z,100723.03
2023-07-14T17:54:48.141Z,100717.63
2023-07-14T17:57:18.272Z,100715.94
2023-07-14T17:59:51.149Z,100717.09
2023-07-14T18:02:22.151Z,100711.91
2023-07-14T18:04:50.974Z,100702.50
2023-07-14T18:07:20.184Z,100695.84
2023-07-14T18:09:47.999Z,100697.78
2023-07-14T18:12:17.967Z,100704.19
2023-07-14T18:14:46.692Z,100687.75
2023-07-14T18:17:15.813Z,100691.38
2023-07-14T18:19:44.701Z,100684.13
2023-07-14T18:22:27.419Z,100684.97
2023-07-14T18:24:56.063Z,100681.47
2023-07-14T18:27:24.077Z,100683.41
2023-07-14T18:29:51.859Z,100678.09
2023-07-14T18:32:19.702Z,100675.22
2023-07-14T18:34:47.750Z,100664.56
2023-07-14T18:37:16.709Z,100665.03
2023-07-14T18:39:47.846Z,100655.50
2023-07-14T18:42:20.020Z,100658.78
2023-07-14T18:44:48.927Z,100649.84
2023-07-14T18:47:19.909Z,100660.34
2023-07-14T18:49:47.990Z,100653.09
2023-07-14T18:52:16.926Z,100654.41
2023-07-14T18:54:46.177Z,100639.94
2023-07-14T18:57:18.977Z,100634.63
2023-07-14T18:59:48.060Z,100631.72
2023-07-14T19:02:28.188Z,100620.00
2023-07-14T19:04:58.374Z,100626.06
2023-07-14T19:07:28.018Z,100628.47
2023-07-14T19:09:57.499Z,100622.53
2023-07-14T19:12:27.029Z,100619.66
2023-07-14T19:14:54.877Z,100613.09
2023-07-14T19:17:24.358Z,100606.09
2023-07-14T19:19:53.690Z,100608.63
2023-07-14T19:22:25.351Z,100603.66
2023-07-14T19:24:53.327Z,100599.88
2023-07-14T19:27:22.982Z,100601.53
2023-07-14T19:29:56.219Z,100600.56
2023-07-14T19:32:28.275Z,100601.03
2023-07-14T19:34:56.607Z,100595.59
2023-07-14T19:37:24.690Z,100588.81
2023-07-14T19:39:52.549Z,100591.22
2023-07-14T19:42:21.647Z,100594.69
2023-07-14T19:44:50.940Z,100585.13
2023-07-14T19:47:20.805Z,100578.00
2023-07-14T19:49:48.904Z,100581.22
2023-07-14T19:52:17.220Z,100581.84
2023-07-14T19:54:45.022Z,100581.22
2023-07-14T19:57:16.228Z,100581.47
2023-07-14T19:59:45.366Z,100579.75
2023-07-14T20:02:26.831Z,100577.22
2023-07-14T20:04:55.781Z,100581.31
2023-07-14T20:07:23.982Z,100584.09
2023-07-14T20:09:51.876Z,100587.44
2023-07-14T20:12:21.477Z,100583.84
2023-07-14T20:14:49.298Z,100604.06
2023-07-14T20:17:17.279Z,100592.16
2023-07-14T20:19:46.525Z,100573.84
2023-07-14T20:22:21.327Z,100569.88
2023-07-14T20:24:50.083Z,100566.09
2023-07-14T20:27:24.578Z,100557.03
2023-07-14T20:29:53.491Z,100555.03
2023-07-14T20:32:25.972Z,100558.97
2023-07-14T20:35:01.252Z,100538.59
2023-07-14T20:37:29.705Z,100523.03
2023-07-14T20:39:57.846Z,100522.66
2023-07-14T20:42:25.680Z,100516.97
2023-07-14T20:44:53.425Z,100515.16
2023-07-14T20:47:21.295Z,100504.59
2023-07-14T20:49:51.254Z,100507.88
2023-07-14T20:52:22.465Z,100506.28
2023-07-14T20:54:54.779Z,100498.91
2023-07-14T20:57:22.735Z,100491.28
2023-07-14T20:59:50.848Z,100498.34
2023-07-14T21:02:21.774Z,100487.50
2023-07-14T21:04:49.816Z,100489.44
2023-07-14T21:07:18.849Z,100491.97
2023-07-14T21:09:48.335Z,100479.69
2023-07-14T21:12:18.778Z,100477.59
2023-07-14T21:14:46.610Z,100466.13
2023-07-14T21:17:16.885Z,100469.13
2023-07-14T21:19:45.066Z,100459.59
2023-07-14T21:22:14.172Z,100462.81
2023-07-14T21:24:42.981Z,100459.03
2023-07-14T21:27:17.185Z,100452.06
2023-07-14T21:29:45.485Z,100443.38
2023-07-14T21:32:25.631Z,100430.22
2023-07-14T21:34:54.885Z,100424.50
2023-07-14T21:37:25.594Z,100420.28
2023-07-14T21:39:53.589Z,100419.91
2023-07-14T21:42:23.445Z,100422.03
2023-07-14T21:44:51.234Z,100419.50
2023-07-14T21:47:22.090Z,100421.44
2023-07-14T21:49:50.236Z,100418.88
2023-07-14T21:52:22.781Z,100416.34
2023-07-14T21:54:50.583Z,100412.50
2023-07-14T21:57:18.604Z,100414.22
2023-07-14T21:59:47.788Z,100407.63
2023-07-14T22:02:16.393Z,100402.91
2023-07-14T22:04:44.377Z,100399.91
2023-07-14T22:07:13.343Z,100398.03
2023-07-14T22:09:42.083Z,100392.50
2023-07-14T22:12:18.707Z,100389.50
2023-07-14T22:14:47.962Z,100384.19
2023-07-14T22:17:17.243Z,100379.50
2023-07-14T22:19:46.604Z,100385.28
2023-07-14T22:22:15.597Z,100379.50
2023-07-14T22:24:43.709Z,100376.75
2023-07-14T22:27:13.558Z,100366.75
2023-07-14T22:29:42.979Z,100369.53
2023-07-14T22:32:16.136Z,100364.84
2023-07-14T22:34:44.954Z,100350.16
2023-07-14T22:37:12.779Z,100362.31
2023-07-14T22:39:40.562Z,100357.41
2023-07-14T22:42:10.807Z,100357.88
2023-07-14T22:44:38.566Z,100345.75
2023-07-14T22:47:11.847Z,100346.19
2023-07-14T22:49:41.669Z,100338.13
2023-07-14T22:52:12.319Z,100337.91
2023-07-14T22:54:40.165Z,100336.84
2023-07-14T22:57:16.081Z,100337.47
2023-07-14T22:59:44.230Z,100331.31
2023-07-14T23:02:15.596Z,100336.84
2023-07-14T23:04:44.899Z,100327.69
2023-07-14T23:07:13.956Z,100315.78
2023-07-14T23:09:42.090Z,100324.91
2023-07-14T23:12:15.224Z,100313.03
2023-07-14T23:14:44.636Z,100322.16
2023-07-14T23:17:14.719Z,100308.34
2023-07-14T23:19:44.007Z,100311.97
2023-07-14T23:22:12.465Z,100308.34
2023-07-14T23:24:40.248Z,100306.66
2023-07-14T23:27:10.592Z,100305.34
2023-07-14T23:29:38.386Z,100305.34
2023-07-14T23:32:07.162Z,100302.13
2023-07-14T23:34:35.013Z,100296.16
2023-07-14T23:37:04.284Z,100299.50
2023-07-14T23:39:32.139Z,100291.22
2023-07-14T23:41:59.910Z,100293.97
2023-07-14T23:44:28.032Z,100292.31
2023-07-14T23:46:56.059Z,100288.09
2023-07-14T23:49:23.895Z,100286.59
2023-07-14T23:51:52.658Z,100290.47
2023-07-14T23:54:24.988Z,100294.31
2023-07-14T23:56:52.825Z,100306.44
2023-07-14T23:59:21.121Z,100300.28
